Budaghers, New Mexico
Current Conditions -  °F | °C
As of 2:55 AM on Friday 31 Oct 2014 (Local Time) from KAEG Reporting Station
Clear Clear  
Wind Chill: 41°   Ceiling: Unl
Heat Index: 45°   Visibility: 10mi
Dew Point: 23°   Wind: 9mph
Humidity: 42%   Direction: 110°ESE
Pressure: 30.37"   Gusts: NA
Location:  35.4656°N, 106.615°W
Report Text: KAEG 310855Z AUTO 11008KT 10SM CLR 07/M05 A3037 RMK AO2 T00741049
Loading
Personal Weather Stations






























Interactive Weather Map
Tropical Storm Tracking
New forecast layout! Learn more

10-Day Weather Forecast

Advertisements
Track Severe Weather on mobile